sensor_id;sensor_type;location;lat;lon;timestamp;pressure;altitude;pressure_sealevel;temperature;humidity
55755;BME280;41674;52.290;-1.474;2023-06-04T00:02:24;101924.43;;;12.34;71.64
55755;BME280;41674;52.290;-1.474;2023-06-04T00:04:54;101921.49;;;12.82;70.54
55755;BME280;41674;52.290;-1.474;2023-06-04T00:07:23;101923.30;;;12.51;70.20
55755;BME280;41674;52.290;-1.474;2023-06-04T00:09:53;101926.54;;;10.54;76.88
55755;BME280;41674;52.290;-1.474;2023-06-04T00:12:22;101935.86;;;9.73;83.36
55755;BME280;41674;52.290;-1.474;2023-06-04T00:14:52;101932.92;;;9.99;81.63
55755;BME280;41674;52.290;-1.474;2023-06-04T00:19:52;101931.93;;;9.71;84.55
55755;BME280;41674;52.290;-1.474;2023-06-04T00:22:21;101931.93;;;9.44;84.52
55755;BME280;41674;52.290;-1.474;2023-06-04T00:24:51;101931.38;;;8.70;89.64
55755;BME280;41674;52.290;-1.474;2023-06-04T00:27:20;101932.73;;;8.50;93.44
55755;BME280;41674;52.290;-1.474;2023-06-04T00:29:49;101923.57;;;10.46;82.92
55755;BME280;41674;52.290;-1.474;2023-06-04T00:32:19;101924.26;;;11.26;79.43
55755;BME280;41674;52.290;-1.474;2023-06-04T00:34:51;101922.89;;;11.31;78.17
55755;BME280;41674;52.290;-1.474;2023-06-04T00:37:18;101927.25;;;11.46;76.77
55755;BME280;41674;52.290;-1.474;2023-06-04T00:39:48;101927.48;;;10.60;79.90
55755;BME280;41674;52.290;-1.474;2023-06-04T00:42:17;101938.56;;;8.82;86.85
55755;BME280;41674;52.290;-1.474;2023-06-04T00:44:47;101930.91;;;11.68;78.49
55755;BME280;41674;52.290;-1.474;2023-06-04T00:47:19;101931.13;;;10.98;77.44
55755;BME280;41674;52.290;-1.474;2023-06-04T00:49:46;101931.66;;;11.15;76.15
55755;BME280;41674;52.290;-1.474;2023-06-04T00:52:16;101930.56;;;11.90;73.06
55755;BME280;41674;52.290;-1.474;2023-06-04T00:54:46;101932.35;;;11.74;72.41
55755;BME280;41674;52.290;-1.474;2023-06-04T00:57:15;101931.58;;;12.04;71.10
55755;BME280;41674;52.290;-1.474;2023-06-04T00:59:45;101932.08;;;11.78;71.11
55755;BME280;41674;52.290;-1.474;2023-06-04T01:02:16;101931.40;;;11.80;72.63
55755;BME280;41674;52.290;-1.474;2023-06-04T01:04:51;101928.21;;;11.28;73.10
55755;BME280;41674;52.290;-1.474;2023-06-04T01:07:15;101929.81;;;11.32;72.79
55755;BME280;41674;52.290;-1.474;2023-06-04T01:09:45;101932.25;;;11.80;70.42
55755;BME280;41674;52.290;-1.474;2023-06-04T01:12:17;101931.87;;;10.76;72.65
55755;BME280;41674;52.290;-1.474;2023-06-04T01:14:43;101936.92;;;8.39;83.11
55755;BME280;41674;52.290;-1.474;2023-06-04T01:17:17;101939.18;;;8.31;87.69
55755;BME280;41674;52.290;-1.474;2023-06-04T01:22:17;101942.08;;;7.99;91.23
55755;BME280;41674;52.290;-1.474;2023-06-04T01:24:41;101941.35;;;8.64;89.24
55755;BME280;41674;52.290;-1.474;2023-06-04T01:27:11;101945.99;;;6.71;95.44
55755;BME280;41674;52.290;-1.474;2023-06-04T01:29:40;101944.45;;;7.71;94.89
55755;BME280;41674;52.290;-1.474;2023-06-04T01:32:10;101944.39;;;9.17;89.11
55755;BME280;41674;52.290;-1.474;2023-06-04T01:34:44;101944.92;;;10.01;83.43
55755;BME280;41674;52.290;-1.474;2023-06-04T01:37:09;101940.47;;;10.56;79.88
55755;BME280;41674;52.290;-1.474;2023-06-04T01:39:38;101944.05;;;10.27;78.87
55755;BME280;41674;52.290;-1.474;2023-06-04T01:42:09;101937.16;;;10.67;77.40
55755;BME280;41674;52.290;-1.474;2023-06-04T01:44:38;101936.19;;;10.61;75.72
55755;BME280;41674;52.290;-1.474;2023-06-04T01:47:07;101937.48;;;11.15;74.19
55755;BME280;41674;52.290;-1.474;2023-06-04T01:49:37;101938.52;;;10.74;76.02
55755;BME280;41674;52.290;-1.474;2023-06-04T01:52:07;101941.84;;;10.58;75.23
55755;BME280;41674;52.290;-1.474;2023-06-04T01:54:36;101941.87;;;10.97;75.16
55755;BME280;41674;52.290;-1.474;2023-06-04T01:57:07;101942.19;;;11.28;73.63
55755;BME280;41674;52.290;-1.474;2023-06-04T01:59:36;101939.56;;;10.93;76.08
55755;BME280;41674;52.290;-1.474;2023-06-04T02:02:05;101937.93;;;10.60;76.60
55755;BME280;41674;52.290;-1.474;2023-06-04T02:04:35;101941.45;;;10.58;75.83
55755;BME280;41674;52.290;-1.474;2023-06-04T02:07:05;101945.12;;;11.32;74.43
55755;BME280;41674;52.290;-1.474;2023-06-04T02:09:34;101947.10;;;11.04;76.29
55755;BME280;41674;52.290;-1.474;2023-06-04T02:12:04;101947.08;;;10.71;77.16
55755;BME280;41674;52.290;-1.474;2023-06-04T02:14:33;101947.50;;;10.88;77.32
55755;BME280;41674;52.290;-1.474;2023-06-04T02:17:03;101943.64;;;10.62;78.52
55755;BME280;41674;52.290;-1.474;2023-06-04T02:19:32;101943.67;;;10.84;77.97
55755;BME280;41674;52.290;-1.474;2023-06-04T02:22:07;101943.24;;;11.59;75.50
55755;BME280;41674;52.290;-1.474;2023-06-04T02:24:31;101941.83;;;11.03;77.50
55755;BME280;41674;52.290;-1.474;2023-06-04T02:27:01;101940.84;;;11.69;77.59
55755;BME280;41674;52.290;-1.474;2023-06-04T02:29:31;101945.37;;;11.12;79.41
55755;BME280;41674;52.290;-1.474;2023-06-04T02:32:00;101945.02;;;10.23;81.36
55755;BME280;41674;52.290;-1.474;2023-06-04T02:34:30;101941.40;;;10.97;80.15
55755;BME280;41674;52.290;-1.474;2023-06-04T02:36:59;101939.50;;;10.68;82.47
55755;BME280;41674;52.290;-1.474;2023-06-04T02:39:28;101940.57;;;10.55;82.55
55755;BME280;41674;52.290;-1.474;2023-06-04T02:41:58;101943.41;;;10.38;82.54
55755;BME280;41674;52.290;-1.474;2023-06-04T02:44:27;101945.17;;;10.30;83.23
55755;BME280;41674;52.290;-1.474;2023-06-04T02:46:57;101945.43;;;9.97;84.72
55755;BME280;41674;52.290;-1.474;2023-06-04T02:49:26;101938.92;;;10.55;82.26
55755;BME280;41674;52.290;-1.474;2023-06-04T02:51:56;101934.94;;;10.52;82.58
55755;BME280;41674;52.290;-1.474;2023-06-04T02:54:26;101941.47;;;10.01;85.34
55755;BME280;41674;52.290;-1.474;2023-06-04T02:56:56;101935.13;;;10.74;82.81
55755;BME280;41674;52.290;-1.474;2023-06-04T02:59:25;101937.98;;;10.86;84.18
55755;BME280;41674;52.290;-1.474;2023-06-04T03:01:54;101935.71;;;11.03;81.28
55755;BME280;41674;52.290;-1.474;2023-06-04T03:04:24;101941.73;;;9.65;85.39
55755;BME280;41674;52.290;-1.474;2023-06-04T03:06:54;101942.44;;;10.37;85.61
55755;BME280;41674;52.290;-1.474;2023-06-04T03:09:23;101939.66;;;10.67;83.90
55755;BME280;41674;52.290;-1.474;2023-06-04T03:11:52;101949.20;;;8.86;89.08
55755;BME280;41674;52.290;-1.474;2023-06-04T03:14:22;101947.08;;;9.76;88.80
55755;BME280;41674;52.290;-1.474;2023-06-04T03:16:52;101945.18;;;9.04;94.07
55755;BME280;41674;52.290;-1.474;2023-06-04T03:19:21;101943.31;;;7.19;100.00
55755;BME280;41674;52.290;-1.474;2023-06-04T03:21:50;101938.34;;;8.15;100.00
55755;BME280;41674;52.290;-1.474;2023-06-04T03:24:20;101937.10;;;9.49;97.56
55755;BME280;41674;52.290;-1.474;2023-06-04T03:26:50;101939.33;;;8.93;97.46
55755;BME280;41674;52.290;-1.474;2023-06-04T03:29:19;101940.52;;;9.02;100.00
55755;BME280;41674;52.290;-1.474;2023-06-04T03:31:49;101943.28;;;10.03;94.18
55755;BME280;41674;52.290;-1.474;2023-06-04T03:34:18;101943.76;;;8.33;100.00
55755;BME280;41674;52.290;-1.474;2023-06-04T03:36:48;101947.30;;;7.59;100.00
55755;BME280;41674;52.290;-1.474;2023-06-04T03:39:18;101945.60;;;8.31;100.00
55755;BME280;41674;52.290;-1.474;2023-06-04T03:41:47;101940.93;;;8.40;100.00
55755;BME280;41674;52.290;-1.474;2023-06-04T03:44:17;101942.13;;;8.13;100.00
55755;BME280;41674;52.290;-1.474;2023-06-04T03:46:46;101942.23;;;7.76;100.00
55755;BME280;41674;52.290;-1.474;2023-06-04T03:49:16;101941.50;;;8.65;100.00
55755;BME280;41674;52.290;-1.474;2023-06-04T03:51:46;101943.74;;;9.13;99.41
55755;BME280;41674;52.290;-1.474;2023-06-04T03:54:15;101942.84;;;8.13;100.00
55755;BME280;41674;52.290;-1.474;2023-06-04T03:56:44;101943.42;;;8.65;98.75
55755;BME280;41674;52.290;-1.474;2023-06-04T03:59:14;101943.52;;;8.53;100.00
55755;BME280;41674;52.290;-1.474;2023-06-04T04:01:43;101940.95;;;9.07;97.39
55755;BME280;41674;52.290;-1.474;2023-06-04T04:04:13;101940.79;;;9.36;95.92
55755;BME280;41674;52.290;-1.474;2023-06-04T04:06:42;101934.08;;;10.32;90.49
55755;BME280;41674;52.290;-1.474;2023-06-04T04:09:11;101932.39;;;10.61;88.56
55755;BME280;41674;52.290;-1.474;2023-06-04T04:11:41;101935.84;;;11.73;82.81
55755;BME280;41674;52.290;-1.474;2023-06-04T04:14:10;101935.14;;;11.61;83.78
55755;BME280;41674;52.290;-1.474;2023-06-04T04:16:40;101939.83;;;10.87;84.94
55755;BME280;41674;52.290;-1.474;2023-06-04T04:19:10;101941.99;;;11.56;85.18
55755;BME280;41674;52.290;-1.474;2023-06-04T04:21:39;101944.53;;;11.03;86.44
55755;BME280;41674;52.290;-1.474;2023-06-04T04:24:09;101952.64;;;9.44;94.04
55755;BME280;41674;52.290;-1.474;2023-06-04T04:26:39;101940.53;;;10.73;89.01
55755;BME280;41674;52.290;-1.474;2023-06-04T04:29:08;101936.51;;;12.00;85.52
55755;BME280;41674;52.290;-1.474;2023-06-04T04:31:37;101931.13;;;12.09;82.71
55755;BME280;41674;52.290;-1.474;2023-06-04T04:34:07;101933.53;;;10.93;85.43
55755;BME280;41674;52.290;-1.474;2023-06-04T04:36:36;101931.04;;;12.05;82.07
55755;BME280;41674;52.290;-1.474;2023-06-04T04:39:06;101931.11;;;12.12;81.19
55755;BME280;41674;52.290;-1.474;2023-06-04T04:41:37;101932.39;;;11.86;82.79
55755;BME280;41674;52.290;-1.474;2023-06-04T04:44:05;101934.67;;;11.93;81.95
55755;BME280;41674;52.290;-1.474;2023-06-04T04:46:35;101934.42;;;11.60;83.08
55755;BME280;41674;52.290;-1.474;2023-06-04T04:49:05;101932.77;;;12.60;79.32
55755;BME280;41674;52.290;-1.474;2023-06-04T04:51:34;101945.24;;;10.89;85.33
55755;BME280;41674;52.290;-1.474;2023-06-04T04:54:03;101944.71;;;11.32;83.45
55755;BME280;41674;52.290;-1.474;2023-06-04T04:56:33;101943.01;;;10.58;86.02
55755;BME280;41674;52.290;-1.474;2023-06-04T04:59:02;101945.83;;;11.17;82.73
55755;BME280;41674;52.290;-1.474;2023-06-04T05:01:32;101949.24;;;11.15;82.33
55755;BME280;41674;52.290;-1.474;2023-06-04T05:04:01;101951.29;;;11.82;79.67
55755;BME280;41674;52.290;-1.474;2023-06-04T05:06:31;101948.96;;;11.71;78.51
55755;BME280;41674;52.290;-1.474;2023-06-04T05:09:01;101948.38;;;10.80;81.65
55755;BME280;41674;52.290;-1.474;2023-06-04T05:11:30;101950.04;;;9.76;83.07
55755;BME280;41674;52.290;-1.474;2023-06-04T05:14:00;101945.80;;;10.80;81.01
55755;BME280;41674;52.290;-1.474;2023-06-04T05:16:29;101945.81;;;10.67;81.74
55755;BME280;41674;52.290;-1.474;2023-06-04T05:18:59;101944.43;;;10.68;83.18
55755;BME280;41674;52.290;-1.474;2023-06-04T05:21:28;101950.55;;;10.39;85.28
55755;BME280;41674;52.290;-1.474;2023-06-04T05:23:58;101950.46;;;10.60;85.91
55755;BME280;41674;52.290;-1.474;2023-06-04T05:26:28;101946.12;;;10.46;84.60
55755;BME280;41674;52.290;-1.474;2023-06-04T05:28:57;101950.84;;;10.74;85.14
55755;BME280;41674;52.290;-1.474;2023-06-04T05:31:26;101955.54;;;9.69;87.27
55755;BME280;41674;52.290;-1.474;2023-06-04T05:33:56;101949.49;;;10.61;84.29
55755;BME280;41674;52.290;-1.474;2023-06-04T05:36:26;101953.65;;;10.71;84.10
55755;BME280;41674;52.290;-1.474;2023-06-04T05:38:56;101956.74;;;10.81;85.09
55755;BME280;41674;52.290;-1.474;2023-06-04T05:41:24;101960.84;;;10.11;85.29
55755;BME280;41674;52.290;-1.474;2023-06-04T05:43:54;101960.46;;;11.22;81.68
55755;BME280;41674;52.290;-1.474;2023-06-04T05:46:23;101966.31;;;10.14;87.06
55755;BME280;41674;52.290;-1.474;2023-06-04T05:48:54;101965.12;;;9.71;89.08
55755;BME280;41674;52.290;-1.474;2023-06-04T05:51:23;101965.89;;;9.32;91.74
55755;BME280;41674;52.290;-1.474;2023-06-04T05:53:53;101969.45;;;9.73;90.28
55755;BME280;41674;52.290;-1.474;2023-06-04T05:56:22;101970.26;;;9.34;90.60
55755;BME280;41674;52.290;-1.474;2023-06-04T05:58:53;101974.25;;;10.28;87.52
55755;BME280;41674;52.290;-1.474;2023-06-04T06:01:21;101973.60;;;9.91;88.60
55755;BME280;41674;52.290;-1.474;2023-06-04T06:03:50;101975.14;;;9.88;87.72
55755;BME280;41674;52.290;-1.474;2023-06-04T06:06:19;101980.14;;;10.11;87.41
55755;BME280;41674;52.290;-1.474;2023-06-04T06:08:48;101979.71;;;9.84;89.55
55755;BME280;41674;52.290;-1.474;2023-06-04T06:11:18;101979.11;;;8.27;97.13
55755;BME280;41674;52.290;-1.474;2023-06-04T06:13:48;101979.68;;;8.18;97.18
55755;BME280;41674;52.290;-1.474;2023-06-04T06:16:17;101981.83;;;8.52;95.73
55755;BME280;41674;52.290;-1.474;2023-06-04T06:18:47;101983.36;;;8.57;98.97
55755;BME280;41674;52.290;-1.474;2023-06-04T06:21:16;101979.72;;;9.60;93.75
55755;BME280;41674;52.290;-1.474;2023-06-04T06:23:45;101980.42;;;8.40;98.35
55755;BME280;41674;52.290;-1.474;2023-06-04T06:26:15;101984.92;;;7.35;100.00
55755;BME280;41674;52.290;-1.474;2023-06-04T06:28:44;101980.86;;;9.02;99.19
55755;BME280;41674;52.290;-1.474;2023-06-04T06:31:15;101978.92;;;8.92;98.11
55755;BME280;41674;52.290;-1.474;2023-06-04T06:33:43;101983.94;;;8.02;100.00
55755;BME280;41674;52.290;-1.474;2023-06-04T06:36:13;101978.15;;;8.34;100.00
55755;BME280;41674;52.290;-1.474;2023-06-04T06:38:42;101975.29;;;8.52;100.00
55755;BME280;41674;52.290;-1.474;2023-06-04T06:41:12;101975.70;;;8.19;100.00
55755;BME280;41674;52.290;-1.474;2023-06-04T06:43:42;101976.89;;;9.70;96.02
55755;BME280;41674;52.290;-1.474;2023-06-04T06:46:11;101974.70;;;9.67;95.00
55755;BME280;41674;52.290;-1.474;2023-06-04T06:48:41;101976.21;;;9.85;94.26
55755;BME280;41674;52.290;-1.474;2023-06-04T06:51:11;101980.34;;;7.46;100.00
55755;BME280;41674;52.290;-1.474;2023-06-04T06:53:41;101979.12;;;8.92;100.00
55755;BME280;41674;52.290;-1.474;2023-06-04T06:56:09;101980.43;;;9.87;97.28
55755;BME280;41674;52.290;-1.474;2023-06-04T06:58:39;101984.91;;;7.49;100.00
55755;BME280;41674;52.290;-1.474;2023-06-04T07:01:08;101980.93;;;8.69;100.00
55755;BME280;41674;52.290;-1.474;2023-06-04T07:03:38;101979.96;;;8.63;100.00
55755;BME280;41674;52.290;-1.474;2023-06-04T07:06:08;101983.08;;;8.33;100.00
55755;BME280;41674;52.290;-1.474;2023-06-04T07:08:37;101987.03;;;9.30;100.00
55755;BME280;41674;52.290;-1.474;2023-06-04T07:11:07;101994.73;;;6.81;100.00
55755;BME280;41674;52.290;-1.474;2023-06-04T07:13:36;101993.81;;;8.38;100.00
55755;BME280;41674;52.290;-1.474;2023-06-04T07:16:06;101989.94;;;8.26;100.00
55755;BME280;41674;52.290;-1.474;2023-06-04T07:18:35;101986.14;;;8.80;100.00
55755;BME280;41674;52.290;-1.474;2023-06-04T07:21:05;101987.91;;;8.05;100.00
55755;BME280;41674;52.290;-1.474;2023-06-04T07:23:34;101987.09;;;7.77;100.00
55755;BME280;41674;52.290;-1.474;2023-06-04T07:26:03;101985.10;;;8.79;100.00
55755;BME280;41674;52.290;-1.474;2023-06-04T07:28:33;101985.95;;;8.65;100.00
55755;BME280;41674;52.290;-1.474;2023-06-04T07:31:03;101980.76;;;9.45;95.86
55755;BME280;41674;52.290;-1.474;2023-06-04T07:33:32;101984.29;;;8.47;98.77
55755;BME280;41674;52.290;-1.474;2023-06-04T07:36:02;101987.12;;;10.28;90.89
55755;BME280;41674;52.290;-1.474;2023-06-04T07:38:32;101991.40;;;10.37;91.51
55755;BME280;41674;52.290;-1.474;2023-06-04T07:41:01;101992.63;;;9.69;95.80
55755;BME280;41674;52.290;-1.474;2023-06-04T07:43:32;101987.93;;;9.36;93.10
55755;BME280;41674;52.290;-1.474;2023-06-04T07:46:00;101985.67;;;9.47;92.10
55755;BME280;41674;52.290;-1.474;2023-06-04T07:51:01;101985.93;;;10.18;90.31
55755;BME280;41674;52.290;-1.474;2023-06-04T07:53:29;101989.21;;;10.66;90.96
55755;BME280;41674;52.290;-1.474;2023-06-04T07:55:58;101996.63;;;10.90;87.89
55755;BME280;41674;52.290;-1.474;2023-06-04T07:58:29;101996.36;;;10.54;84.99
55755;BME280;41674;52.290;-1.474;2023-06-04T08:00:57;101997.59;;;10.47;86.48
55755;BME280;41674;52.290;-1.474;2023-06-04T08:03:27;102003.42;;;10.46;87.42
55755;BME280;41674;52.290;-1.474;2023-06-04T08:05:56;101996.43;;;10.67;86.84
55755;BME280;41674;52.290;-1.474;2023-06-04T08:08:26;101995.33;;;9.44;92.54
55755;BME280;41674;52.290;-1.474;2023-06-04T08:10:56;101994.63;;;10.57;88.05
55755;BME280;41674;52.290;-1.474;2023-06-04T08:13:25;101996.88;;;10.50;85.93
55755;BME280;41674;52.290;-1.474;2023-06-04T08:15:54;101986.38;;;11.18;80.19
55755;BME280;41674;52.290;-1.474;2023-06-04T08:18:24;101990.56;;;9.41;86.10
55755;BME280;41674;52.290;-1.474;2023-06-04T08:20:54;101993.86;;;10.63;86.77
55755;BME280;41674;52.290;-1.474;2023-06-04T08:23:23;101992.86;;;10.30;87.54
55755;BME280;41674;52.290;-1.474;2023-06-04T08:25:52;101994.83;;;10.32;86.04
55755;BME280;41674;52.290;-1.474;2023-06-04T08:28:21;101993.48;;;9.84;84.32
55755;BME280;41674;52.290;-1.474;2023-06-04T08:30:51;101993.50;;;10.73;85.73
55755;BME280;41674;52.290;-1.474;2023-06-04T08:33:21;101984.22;;;11.45;80.16
55755;BME280;41674;52.290;-1.474;2023-06-04T08:35:50;101994.14;;;10.17;83.07
55755;BME280;41674;52.290;-1.474;2023-06-04T08:38:21;101983.25;;;10.90;83.78
55755;BME280;41674;52.290;-1.474;2023-06-04T08:40:52;101982.45;;;11.62;83.10
55755;BME280;41674;52.290;-1.474;2023-06-04T08:43:20;101986.68;;;10.39;84.49
55755;BME280;41674;52.290;-1.474;2023-06-04T08:45:50;101978.63;;;12.04;78.83
55755;BME280;41674;52.290;-1.474;2023-06-04T08:48:20;101976.82;;;11.57;80.18
55755;BME280;41674;52.290;-1.474;2023-06-04T08:50:48;101976.40;;;11.61;76.86
55755;BME280;41674;52.290;-1.474;2023-06-04T08:53:18;101977.19;;;11.07;81.56
55755;BME280;41674;52.290;-1.474;2023-06-04T08:55:50;101979.31;;;12.29;78.71
55755;BME280;41674;52.290;-1.474;2023-06-04T08:58:17;101982.26;;;10.43;81.76
55755;BME280;41674;52.290;-1.474;2023-06-04T09:00:46;101975.91;;;12.36;77.16
55755;BME280;41674;52.290;-1.474;2023-06-04T09:03:16;101976.00;;;12.41;75.61
55755;BME280;41674;52.290;-1.474;2023-06-04T09:05:49;101973.28;;;10.92;81.35
55755;BME280;41674;52.290;-1.474;2023-06-04T09:08:17;101975.97;;;12.27;78.13
55755;BME280;41674;52.290;-1.474;2023-06-04T09:10:45;101976.49;;;12.26;75.54
55755;BME280;41674;52.290;-1.474;2023-06-04T09:13:15;101978.84;;;11.90;77.45
55755;BME280;41674;52.290;-1.474;2023-06-04T09:15:44;101980.60;;;11.92;72.95
55755;BME280;41674;52.290;-1.474;2023-06-04T09:18:14;101979.27;;;10.83;77.06
55755;BME280;41674;52.290;-1.474;2023-06-04T09:20:43;101978.55;;;11.42;77.92
55755;BME280;41674;52.290;-1.474;2023-06-04T09:23:13;101977.88;;;12.63;74.43
55755;BME280;41674;52.290;-1.474;2023-06-04T09:25:43;101967.48;;;12.98;69.76
55755;BME280;41674;52.290;-1.474;2023-06-04T09:28:12;101974.93;;;11.99;72.10
55755;BME280;41674;52.290;-1.474;2023-06-04T09:30:50;101969.02;;;12.69;71.94
55755;BME280;41674;52.290;-1.474;2023-06-04T09:33:11;101976.26;;;11.81;77.14
55755;BME280;41674;52.290;-1.474;2023-06-04T09:35:40;101964.70;;;13.14;72.02
55755;BME280;41674;52.290;-1.474;2023-06-04T09:38:15;101967.28;;;12.12;75.89
55755;BME280;41674;52.290;-1.474;2023-06-04T09:40:39;101965.32;;;12.82;73.95
55755;BME280;41674;52.290;-1.474;2023-06-04T09:43:11;101964.99;;;12.73;75.58
55755;BME280;41674;52.290;-1.474;2023-06-04T09:45:38;101964.26;;;13.69;71.16
55755;BME280;41674;52.290;-1.474;2023-06-04T09:48:08;101962.51;;;14.02;71.82
55755;BME280;41674;52.290;-1.474;2023-06-04T09:50:37;101971.57;;;13.96;70.31
55755;BME280;41674;52.290;-1.474;2023-06-04T09:53:14;101971.64;;;13.42;75.38
55755;BME280;41674;52.290;-1.474;2023-06-04T09:55:37;101975.78;;;13.99;69.87
55755;BME280;41674;52.290;-1.474;2023-06-04T09:58:07;101981.04;;;14.40;68.98
55755;BME280;41674;52.290;-1.474;2023-06-04T10:00:36;101980.12;;;14.90;65.94
55755;BME280;41674;52.290;-1.474;2023-06-04T10:03:06;101981.31;;;14.67;65.67
55755;BME280;41674;52.290;-1.474;2023-06-04T10:05:36;101980.13;;;14.96;67.84
55755;BME280;41674;52.290;-1.474;2023-06-04T10:08:04;101981.88;;;13.63;70.66
55755;BME280;41674;52.290;-1.474;2023-06-04T10:10:35;101979.68;;;12.87;73.98
55755;BME280;41674;52.290;-1.474;2023-06-04T10:13:17;101983.02;;;13.18;72.97
55755;BME280;41674;52.290;-1.474;2023-06-04T10:15:35;101983.68;;;14.37;74.38
55755;BME280;41674;52.290;-1.474;2023-06-04T10:18:03;101979.77;;;13.86;71.54
55755;BME280;41674;52.290;-1.474;2023-06-04T10:20:32;101983.34;;;13.94;73.63
55755;BME280;41674;52.290;-1.474;2023-06-04T10:23:02;101984.76;;;12.30;75.85
55755;BME280;41674;52.290;-1.474;2023-06-04T10:25:31;101978.40;;;13.42;74.38
55755;BME280;41674;52.290;-1.474;2023-06-04T10:28:01;101982.99;;;13.25;74.39
55755;BME280;41674;52.290;-1.474;2023-06-04T10:30:31;101983.35;;;13.54;73.15
55755;BME280;41674;52.290;-1.474;2023-06-04T10:33:00;101984.12;;;13.74;71.60
55755;BME280;41674;52.290;-1.474;2023-06-04T10:35:31;101987.48;;;13.37;73.17
55755;BME280;41674;52.290;-1.474;2023-06-04T10:38:07;101989.89;;;13.71;73.19
55755;BME280;41674;52.290;-1.474;2023-06-04T10:40:32;101992.09;;;14.27;71.73
55755;BME280;41674;52.290;-1.474;2023-06-04T10:43:05;101992.67;;;14.94;69.13
55755;BME280;41674;52.290;-1.474;2023-06-04T10:45:30;101984.54;;;15.44;67.81
55755;BME280;41674;52.290;-1.474;2023-06-04T10:48:01;101982.05;;;16.29;65.28
55755;BME280;41674;52.290;-1.474;2023-06-04T10:50:27;101983.70;;;14.69;68.40
55755;BME280;41674;52.290;-1.474;2023-06-04T10:52:56;101983.52;;;15.05;69.66
55755;BME280;41674;52.290;-1.474;2023-06-04T10:55:26;101984.07;;;15.58;65.77
55755;BME280;41674;52.290;-1.474;2023-06-04T10:57:58;101985.03;;;16.07;63.86
55755;BME280;41674;52.290;-1.474;2023-06-04T11:00:35;101990.66;;;14.83;70.59
55755;BME280;41674;52.290;-1.474;2023-06-04T11:02:55;101988.14;;;15.47;69.41
55755;BME280;41674;52.290;-1.474;2023-06-04T11:05:34;101984.51;;;15.76;64.29
55755;BME280;41674;52.290;-1.474;2023-06-04T11:07:53;101985.64;;;14.72;67.47
55755;BME280;41674;52.290;-1.474;2023-06-04T11:10:31;101982.32;;;16.32;66.27
55755;BME280;41674;52.290;-1.474;2023-06-04T11:12:52;101986.24;;;16.06;65.79
55755;BME280;41674;52.290;-1.474;2023-06-04T11:15:22;101985.99;;;14.95;66.52
55755;BME280;41674;52.290;-1.474;2023-06-04T11:17:53;101981.10;;;15.89;65.22
55755;BME280;41674;52.290;-1.474;2023-06-04T11:20:22;101988.48;;;14.99;70.74
55755;BME280;41674;52.290;-1.474;2023-06-04T11:22:53;101981.98;;;15.95;66.82
55755;BME280;41674;52.290;-1.474;2023-06-04T11:25:20;101982.38;;;15.15;69.41
55755;BME280;41674;52.290;-1.474;2023-06-04T11:27:52;101980.37;;;15.46;67.76
55755;BME280;41674;52.290;-1.474;2023-06-04T11:30:21;101976.93;;;16.81;63.50
55755;BME280;41674;52.290;-1.474;2023-06-04T11:32:49;101978.32;;;17.22;63.27
55755;BME280;41674;52.290;-1.474;2023-06-04T11:35:19;101984.28;;;16.44;66.38
55755;BME280;41674;52.290;-1.474;2023-06-04T11:37:53;101973.18;;;16.78;65.13
55755;BME280;41674;52.290;-1.474;2023-06-04T11:40:18;101978.74;;;16.92;63.87
55755;BME280;41674;52.290;-1.474;2023-06-04T11:42:47;101978.43;;;16.03;66.03
55755;BME280;41674;52.290;-1.474;2023-06-04T11:45:18;101973.28;;;17.17;61.51
55755;BME280;41674;52.290;-1.474;2023-06-04T11:47:47;101974.74;;;14.96;68.23
55755;BME280;41674;52.290;-1.474;2023-06-04T11:50:15;101971.87;;;15.67;68.31
55755;BME280;41674;52.290;-1.474;2023-06-04T11:52:45;101963.81;;;16.49;63.54
55755;BME280;41674;52.290;-1.474;2023-06-04T11:55:16;101960.51;;;17.77;60.24
55755;BME280;41674;52.290;-1.474;2023-06-04T11:57:44;101960.74;;;17.37;61.48
55755;BME280;41674;52.290;-1.474;2023-06-04T12:00:14;101956.04;;;17.78;58.50
55755;BME280;41674;52.290;-1.474;2023-06-04T12:02:51;101961.06;;;16.31;61.61
55755;BME280;41674;52.290;-1.474;2023-06-04T12:05:14;101957.26;;;17.58;63.23
55755;BME280;41674;52.290;-1.474;2023-06-04T12:07:42;101957.22;;;18.14;58.58
55755;BME280;41674;52.290;-1.474;2023-06-04T12:10:13;101953.55;;;18.77;60.05
55755;BME280;41674;52.290;-1.474;2023-06-04T12:12:41;101952.99;;;18.39;56.77
55755;BME280;41674;52.290;-1.474;2023-06-04T12:15:12;101943.85;;;19.17;58.48
55755;BME280;41674;52.290;-1.474;2023-06-04T12:17:49;101949.31;;;17.83;61.06
55755;BME280;41674;52.290;-1.474;2023-06-04T12:20:10;101952.93;;;18.83;59.56
55755;BME280;41674;52.290;-1.474;2023-06-04T12:22:45;101937.30;;;19.20;58.72
55755;BME280;41674;52.290;-1.474;2023-06-04T12:25:09;101945.44;;;18.35;57.42
55755;BME280;41674;52.290;-1.474;2023-06-04T12:27:46;101945.91;;;18.69;59.08
55755;BME280;41674;52.290;-1.474;2023-06-04T12:30:08;101934.14;;;19.30;57.22
55755;BME280;41674;52.290;-1.474;2023-06-04T12:32:38;101941.46;;;19.02;56.49
55755;BME280;41674;52.290;-1.474;2023-06-04T12:35:08;101933.60;;;19.51;56.49
55755;BME280;41674;52.290;-1.474;2023-06-04T12:37:37;101938.27;;;20.06;55.59
55755;BME280;41674;52.290;-1.474;2023-06-04T12:40:07;101945.43;;;17.59;60.78
55755;BME280;41674;52.290;-1.474;2023-06-04T12:42:36;101939.71;;;19.28;53.88
55755;BME280;41674;52.290;-1.474;2023-06-04T12:45:06;101933.78;;;19.76;56.19
55755;BME280;41674;52.290;-1.474;2023-06-04T12:47:34;101934.15;;;19.95;51.93
55755;BME280;41674;52.290;-1.474;2023-06-04T12:50:05;101932.76;;;20.67;52.95
55755;BME280;41674;52.290;-1.474;2023-06-04T12:52:33;101932.09;;;20.58;51.81
55755;BME280;41674;52.290;-1.474;2023-06-04T12:55:03;101930.86;;;19.94;54.26
55755;BME280;41674;52.290;-1.474;2023-06-04T12:57:32;101931.89;;;20.60;53.63
55755;BME280;41674;52.290;-1.474;2023-06-04T13:00:03;101929.87;;;20.24;51.89
55755;BME280;41674;52.290;-1.474;2023-06-04T13:02:31;101928.08;;;20.35;53.99